createdAt,value
2022-09-16T00:00:13.572Z,11.63
2022-09-16T00:01:14.047Z,11.64
2022-09-16T00:02:13.771Z,11.59
2022-09-16T00:03:13.283Z,11.61
2022-09-16T00:04:13.532Z,11.63
2022-09-16T00:05:13.840Z,11.6
2022-09-16T00:06:13.806Z,11.68
2022-09-16T00:07:13.497Z,11.57
2022-09-16T00:08:13.741Z,11.57
2022-09-16T00:09:13.485Z,11.59
2022-09-16T00:10:13.465Z,11.61
2022-09-16T00:11:13.702Z,11.56
2022-09-16T00:12:13.439Z,11.57
2022-09-16T00:13:13.431Z,11.56
2022-09-16T00:14:13.667Z,11.56
2022-09-16T00:15:13.404Z,11.6
2022-09-16T00:16:13.635Z,11.61
2022-09-16T00:17:13.396Z,11.57
2022-09-16T00:18:13.631Z,11.53
2022-09-16T00:19:13.360Z,11.57
2022-09-16T00:20:13.353Z,11.59
2022-09-16T00:21:13.660Z,11.59
2022-09-16T00:22:13.359Z,11.56
2022-09-16T00:23:13.061Z,11.52
2022-09-16T00:24:13.613Z,11.45
2022-09-16T00:25:13.545Z,11.46
2022-09-16T00:26:13.541Z,11.41
2022-09-16T00:27:13.277Z,11.45
2022-09-16T00:28:13.269Z,11.41
2022-09-16T00:29:13.001Z,11.35
2022-09-16T00:30:13.495Z,11.28
2022-09-16T00:31:13.444Z,11.3
2022-09-16T00:32:12.967Z,11.33
2022-09-16T00:33:13.206Z,11.28
2022-09-16T00:34:12.941Z,11.31
2022-09-16T00:35:13.441Z,11.23
2022-09-16T00:36:13.451Z,11.26
2022-09-16T00:37:13.236Z,11.24
2022-09-16T00:38:13.442Z,11.18
2022-09-16T00:39:12.896Z,11.16
2022-09-16T00:40:13.051Z,11.1
2022-09-16T00:41:13.123Z,11.18
2022-09-16T00:42:13.369Z,11.1
2022-09-16T00:43:13.097Z,11.08
2022-09-16T00:44:13.093Z,11.12
2022-09-16T00:45:13.079Z,11.02
2022-09-16T00:46:13.357Z,11.15
2022-09-16T00:47:13.187Z,11.05
2022-09-16T00:48:13.304Z,11.1
2022-09-16T00:49:12.773Z,11.02
2022-09-16T00:50:13.023Z,11.02
2022-09-16T00:51:13.017Z,11.03
2022-09-16T00:52:12.740Z,11.05
2022-09-16T00:53:13.057Z,11.09
2022-09-16T00:54:13.013Z,11.08
2022-09-16T00:55:12.968Z,11.03
2022-09-16T00:56:12.958Z,10.98
2022-09-16T00:57:12.940Z,11.03
2022-09-16T00:58:13.188Z,11.05
2022-09-16T00:59:13.188Z,11.03
2022-09-16T01:00:12.911Z,11
2022-09-16T01:01:13.359Z,11.09
2022-09-16T01:02:13.396Z,11.1
2022-09-16T01:03:13.135Z,11.02
2022-09-16T01:04:13.126Z,11.09
2022-09-16T01:05:13.107Z,11.06
2022-09-16T01:06:12.842Z,11.03
2022-09-16T01:07:12.821Z,11.18
2022-09-16T01:08:12.822Z,11.03
2022-09-16T01:09:13.131Z,11.05
2022-09-16T01:10:12.837Z,11.16
2022-09-16T01:11:12.792Z,11.12
2022-09-16T01:12:13.041Z,11.18
2022-09-16T01:13:12.793Z,11.15
2022-09-16T01:14:12.773Z,11.12
2022-09-16T01:15:12.991Z,11.15
2022-09-16T01:16:12.979Z,11.12
2022-09-16T01:17:12.463Z,11.09
2022-09-16T01:18:12.444Z,11.13
2022-09-16T01:19:12.948Z,11.1
2022-09-16T01:20:12.424Z,11.08
2022-09-16T01:21:12.677Z,11.06
2022-09-16T01:22:12.661Z,11.13
2022-09-16T01:23:12.669Z,11.06
2022-09-16T01:24:12.392Z,10.98
2022-09-16T01:25:12.949Z,11.13
2022-09-16T01:26:12.992Z,11.03
2022-09-16T01:27:12.862Z,10.97
2022-09-16T01:28:12.845Z,11.03
2022-09-16T01:29:12.585Z,10.94
2022-09-16T01:30:12.569Z,10.92
2022-09-16T01:31:12.874Z,10.85
2022-09-16T01:32:12.548Z,10.83
2022-09-16T01:33:12.281Z,10.79
2022-09-16T01:34:12.531Z,10.87
2022-09-16T01:35:12.520Z,10.79
2022-09-16T01:36:12.506Z,10.8
2022-09-16T01:38:12.499Z,10.67
2022-09-16T01:39:12.463Z,10.77
2022-09-16T01:40:12.386Z,10.66
2022-09-16T01:41:12.500Z,10.69
2022-09-16T01:42:12.735Z,10.65
2022-09-16T01:43:12.421Z,10.63
2022-09-16T01:44:12.685Z,10.63
2022-09-16T01:45:12.408Z,10.66
2022-09-16T01:46:12.606Z,10.73
2022-09-16T01:47:12.628Z,10.72
2022-09-16T01:48:12.372Z,10.77
2022-09-16T01:49:12.358Z,10.76
2022-09-16T01:50:12.337Z,10.84
2022-09-16T01:51:12.583Z,10.9
2022-09-16T01:52:12.567Z,10.88
2022-09-16T01:53:12.318Z,10.8
2022-09-16T01:54:12.293Z,10.9
2022-09-16T01:55:12.535Z,10.87
2022-09-16T01:56:12.272Z,10.9
2022-09-16T01:57:12.316Z,10.8
2022-09-16T01:58:12.275Z,10.87
2022-09-16T01:59:12.245Z,10.73
2022-09-16T02:00:12.235Z,10.79
2022-09-16T02:01:12.218Z,10.83
2022-09-16T02:02:12.687Z,10.79
2022-09-16T02:03:11.935Z,10.7
2022-09-16T02:04:11.933Z,10.79
2022-09-16T02:05:12.430Z,10.76
2022-09-16T02:06:11.905Z,10.8
2022-09-16T02:07:11.918Z,10.79
2022-09-16T02:08:12.134Z,10.8
2022-09-16T02:09:12.121Z,10.73
2022-09-16T02:10:11.866Z,10.77
2022-09-16T02:11:12.101Z,10.69
2022-09-16T02:12:11.831Z,10.7
2022-09-16T02:13:12.379Z,10.67
2022-09-16T02:14:12.090Z,10.7
2022-09-16T02:15:12.066Z,10.63
2022-09-16T02:16:12.239Z,10.67
2022-09-16T02:17:11.771Z,10.67
2022-09-16T02:18:12.015Z,10.67
2022-09-16T02:19:11.753Z,10.66
2022-09-16T02:20:11.995Z,10.63
2022-09-16T02:21:12.337Z,10.77
2022-09-16T02:22:11.717Z,10.72
2022-09-16T02:23:12.222Z,10.73
2022-09-16T02:24:11.964Z,10.73
2022-09-16T02:25:11.941Z,10.77
2022-09-16T02:26:11.925Z,10.87
2022-09-16T02:27:11.658Z,10.83
2022-09-16T02:28:11.918Z,10.84
2022-09-16T02:29:11.938Z,10.85
2022-09-16T02:30:12.171Z,10.92
2022-09-16T02:31:12.406Z,10.87
2022-09-16T02:32:11.857Z,10.91
2022-09-16T02:33:11.860Z,10.91
2022-09-16T02:34:11.581Z,10.92
2022-09-16T02:35:12.078Z,10.9
2022-09-16T02:36:11.553Z,10.87
2022-09-16T02:37:12.051Z,10.91
2022-09-16T02:38:12.047Z,10.9
2022-09-16T02:39:12.041Z,10.9
2022-09-16T02:40:11.973Z,10.94
2022-09-16T02:41:11.502Z,10.98
2022-09-16T02:42:11.760Z,10.98
2022-09-16T02:43:11.738Z,10.98
2022-09-16T02:44:11.763Z,10.97
2022-09-16T02:45:12.009Z,10.94
2022-09-16T02:46:12.185Z,10.97
2022-09-16T02:47:11.684Z,10.95
2022-09-16T02:48:11.932Z,10.97
2022-09-16T02:49:11.912Z,10.97
2022-09-16T02:50:11.651Z,11
2022-09-16T02:51:11.492Z,11.08
2022-09-16T02:52:11.636Z,11
2022-09-16T02:53:11.616Z,11.02
2022-09-16T02:54:11.615Z,11
2022-09-16T02:55:11.598Z,11.02
2022-09-16T02:56:11.586Z,11.03
2022-09-16T02:57:11.315Z,11.09
2022-09-16T02:58:11.828Z,11
2022-09-16T02:59:11.552Z,11.16
2022-09-16T03:00:11.536Z,11.02
2022-09-16T03:01:11.844Z,11
2022-09-16T03:02:11.721Z,11.05
2022-09-16T03:03:11.759Z,11.05
2022-09-16T03:04:11.232Z,11.06
2022-09-16T03:05:11.472Z,11.12
2022-09-16T03:06:11.474Z,11.05
2022-09-16T03:07:11.219Z,11.02
2022-09-16T03:08:11.697Z,11
2022-09-16T03:09:11.434Z,11.05
2022-09-16T03:10:11.671Z,11.03
2022-09-16T03:11:11.407Z,11.09
2022-09-16T03:12:11.137Z,11.05
2022-09-16T03:13:11.634Z,11.09
2022-09-16T03:14:11.116Z,11.05
2022-09-16T03:15:11.611Z,11.08
2022-09-16T03:16:11.872Z,11.08
2022-09-16T03:17:11.649Z,11.06
2022-09-16T03:18:11.351Z,11.02
2022-09-16T03:19:11.083Z,10.95
2022-09-16T03:20:11.307Z,10.92
2022-09-16T03:21:11.546Z,10.94
2022-09-16T03:22:11.536Z,10.98
2022-09-16T03:23:11.277Z,10.91
2022-09-16T03:24:11.260Z,10.94
2022-09-16T03:25:11.513Z,10.91
2022-09-16T03:26:11.236Z,10.91
2022-09-16T03:27:11.228Z,10.85
2022-09-16T03:28:11.221Z,10.83
2022-09-16T03:29:11.449Z,10.8
2022-09-16T03:30:11.192Z,10.79
2022-09-16T03:31:11.361Z,10.76
2022-09-16T03:32:11.543Z,10.77
2022-09-16T03:49:21.009Z,10.8
2022-09-16T03:50:20.915Z,10.7
2022-09-16T03:51:20.397Z,10.69
2022-09-16T03:52:20.629Z,10.77
2022-09-16T03:53:20.355Z,10.73
2022-09-16T03:54:20.604Z,10.67
2022-09-16T03:55:20.588Z,10.77
2022-09-16T03:56:20.829Z,10.75
2022-09-16T03:57:20.555Z,10.76
2022-09-16T03:58:20.801Z,10.7
2022-09-16T03:59:20.383Z,10.73
2022-09-16T04:00:20.262Z,10.79
2022-09-16T04:01:20.401Z,10.77
2022-09-16T04:02:20.432Z,10.73
2022-09-16T04:03:20.738Z,10.83
2022-09-16T04:04:20.729Z,10.77
2022-09-16T04:05:20.780Z,10.79
2022-09-16T04:06:20.450Z,10.8
2022-09-16T04:07:20.435Z,10.8
2022-09-16T04:08:20.685Z,10.73
2022-09-16T04:09:20.669Z,10.77
2022-09-16T04:10:20.646Z,10.73
2022-09-16T04:11:20.640Z,10.77
2022-09-16T04:12:20.633Z,10.8
2022-09-16T04:13:20.109Z,10.79
2022-09-16T04:14:20.248Z,10.79
2022-09-16T04:15:20.597Z,10.87
2022-09-16T04:16:20.520Z,10.84
2022-09-16T04:17:20.309Z,10.9
2022-09-16T04:18:20.564Z,10.94
2022-09-16T04:19:20.697Z,10.85
2022-09-16T04:20:20.275Z,10.95
2022-09-16T04:21:20.589Z,10.94
2022-09-16T04:22:20.002Z,10.9
2022-09-16T04:23:20.249Z,10.88
2022-09-16T04:24:20.483Z,10.9
2022-09-16T04:25:20.211Z,10.88
2022-09-16T04:26:20.221Z,10.95
2022-09-16T04:27:20.203Z,10.95
2022-09-16T04:28:20.196Z,10.97
2022-09-16T04:29:20.011Z,10.98
2022-09-16T04:30:20.425Z,10.97
2022-09-16T04:31:20.410Z,11
2022-09-16T04:32:20.135Z,10.98
2022-09-16T04:33:20.376Z,11.03
2022-09-16T04:34:19.861Z,10.95
2022-09-16T04:35:19.849Z,10.98
2022-09-16T04:36:20.098Z,10.95
2022-09-16T04:37:20.424Z,10.97
2022-09-16T04:38:20.075Z,11
2022-09-16T04:39:20.069Z,10.94
2022-09-16T04:40:19.977Z,11.08
2022-09-16T04:41:20.037Z,10.98
2022-09-16T04:42:20.015Z,11
2022-09-16T04:43:20.266Z,11
2022-09-16T04:44:19.904Z,10.95
2022-09-16T04:45:19.983Z,10.97
2022-09-16T04:46:19.973Z,10.97
2022-09-16T04:47:19.963Z,10.9
2022-09-16T04:48:20.217Z,10.95
2022-09-16T04:49:19.856Z,10.97
2022-09-16T04:50:20.200Z,10.94
2022-09-16T04:51:20.169Z,11
2022-09-16T04:52:19.910Z,10.91
2022-09-16T04:53:20.235Z,11
2022-09-16T04:54:19.885Z,10.92
2022-09-16T04:55:20.126Z,10.92
2022-09-16T04:56:19.865Z,11.03
2022-09-16T04:57:20.111Z,10.92
2022-09-16T04:58:20.090Z,11.02
2022-09-16T04:59:19.572Z,10.95
2022-09-16T05:00:19.824Z,10.87
2022-09-16T05:01:20.249Z,11.03
2022-09-16T05:02:19.796Z,10.92
2022-09-16T05:03:19.960Z,10.91
2022-09-16T05:04:19.777Z,10.92
2022-09-16T05:05:20.018Z,10.95
2022-09-16T05:06:25.022Z,10.98
2022-09-16T05:07:19.738Z,10.98
2022-09-16T05:08:19.986Z,10.94
2022-09-16T05:09:20.143Z,10.94
2022-09-16T05:10:19.961Z,10.98
2022-09-16T05:11:19.750Z,10.91
2022-09-16T05:12:19.936Z,10.94
2022-09-16T05:13:19.928Z,10.98
2022-09-16T05:14:19.911Z,10.91
2022-09-16T05:15:19.873Z,10.92
2022-09-16T05:16:20.109Z,10.98
2022-09-16T05:17:53.668Z,11.05
2022-09-16T05:18:19.604Z,11.05
2022-09-16T05:19:19.596Z,11.02
2022-09-16T05:20:19.846Z,11.08
2022-09-16T05:21:19.325Z,11.03
2022-09-16T05:22:19.559Z,11.03
2022-09-16T05:23:19.556Z,11.03
2022-09-16T05:24:19.596Z,11.13
2022-09-16T05:25:20.156Z,11.16
2022-09-16T05:26:19.270Z,11.23
2022-09-16T05:27:19.761Z,11.09
2022-09-16T05:28:19.755Z,11.2
2022-09-16T05:29:19.749Z,11.15
2022-09-16T05:30:22.743Z,11.24
2022-09-16T05:31:19.986Z,11.27
2022-09-16T05:32:19.452Z,11.27
2022-09-16T05:33:19.449Z,11.31
2022-09-16T05:34:19.692Z,11.3
2022-09-16T05:35:19.674Z,11.42
2022-09-16T05:36:19.404Z,11.52
2022-09-16T05:37:19.401Z,11.48
2022-09-16T05:38:19.390Z,11.43
2022-09-16T05:39:29.548Z,11.46
2022-09-16T05:40:19.555Z,11.41
2022-09-16T05:41:19.983Z,11.39
2022-09-16T05:42:19.337Z,11.39
2022-09-16T05:43:19.587Z,11.39
2022-09-16T05:44:19.062Z,11.35
2022-09-16T05:45:28.818Z,11.27
2022-09-16T05:46:19.267Z,11.3
2022-09-16T05:47:19.542Z,11.33
2022-09-16T05:48:19.526Z,11.31
2022-09-16T05:49:19.267Z,11.27
2022-09-16T05:50:19.005Z,11.26
2022-09-16T05:51:24.986Z,11.21
2022-09-16T05:52:18.970Z,11.2
2022-09-16T05:53:19.216Z,11.12
2022-09-16T05:54:19.016Z,11.15
2022-09-16T05:55:19.464Z,11.09
2022-09-16T05:56:19.464Z,11.13
2022-09-16T05:57:19.807Z,11.08
2022-09-16T05:58:19.421Z,11.1
2022-09-16T05:59:19.162Z,11.18
2022-09-16T06:00:19.401Z,11.09
2022-09-16T06:01:19.104Z,11.12
2022-09-16T06:02:19.348Z,11.12
2022-09-16T06:03:18.845Z,11.15
2022-09-16T06:04:18.959Z,11.12
2022-09-16T06:05:18.830Z,11.2
2022-09-16T06:06:19.079Z,11.35
2022-09-16T06:07:18.814Z,11.34
2022-09-16T06:08:19.053Z,11.35
2022-09-16T06:09:19.293Z,11.45
2022-09-16T06:10:19.037Z,11.49
2022-09-16T06:11:19.264Z,11.52
2022-09-16T06:12:19.001Z,11.59
2022-09-16T06:13:19.610Z,11.59
2022-09-16T06:14:18.745Z,11.59
2022-09-16T06:15:18.968Z,11.63
2022-09-16T06:16:19.145Z,11.63
2022-09-16T06:17:18.949Z,11.61
2022-09-16T06:18:18.948Z,11.61
2022-09-16T06:19:18.953Z,11.73
2022-09-16T06:20:18.921Z,11.71
2022-09-16T06:21:19.162Z,11.66
2022-09-16T06:22:19.150Z,11.73
2022-09-16T06:23:18.889Z,11.78
2022-09-16T06:24:18.926Z,11.81
2022-09-16T06:25:18.866Z,11.71
2022-09-16T06:26:19.109Z,11.78
2022-09-16T06:27:19.101Z,11.75
2022-09-16T06:28:19.077Z,11.81
2022-09-16T06:29:19.640Z,11.73
2022-09-16T06:30:19.057Z,11.68
2022-09-16T06:31:19.037Z,11.64
2022-09-16T06:32:18.785Z,11.81
2022-09-16T06:33:18.772Z,11.79
2022-09-16T06:34:19.038Z,11.81
2022-09-16T06:35:19.011Z,11.81
2022-09-16T06:36:18.747Z,11.81
2022-09-16T06:37:18.745Z,11.85
2022-09-16T06:38:18.722Z,11.91
2022-09-16T06:39:18.469Z,11.79
2022-09-16T06:40:18.628Z,11.89
2022-09-16T06:41:18.688Z,11.89
2022-09-16T06:42:18.929Z,11.91
2022-09-16T06:43:18.922Z,11.85
2022-09-16T06:44:18.671Z,11.88
2022-09-16T06:45:19.282Z,11.88
2022-09-16T06:46:19.000Z,11.88
2022-09-16T06:47:18.627Z,11.91
2022-09-16T06:48:18.612Z,11.79
2022-09-16T06:49:18.853Z,11.82
2022-09-16T06:50:18.333Z,11.85
2022-09-16T06:51:18.592Z,11.89
2022-09-16T06:52:18.572Z,11.86
2022-09-16T06:53:18.832Z,11.88
2022-09-16T06:54:18.558Z,11.88
2022-09-16T06:55:18.543Z,11.95
2022-09-16T06:56:18.265Z,11.91
2022-09-16T06:57:18.770Z,12
2022-09-16T06:58:18.250Z,12.03
2022-09-16T06:59:18.495Z,11.98
2022-09-16T07:00:18.481Z,12.01
2022-09-16T07:01:19.313Z,12.07
2022-09-16T07:02:18.753Z,12.07
2022-09-16T07:03:18.746Z,12.1
2022-09-16T07:04:18.446Z,12.16
2022-09-16T07:05:18.201Z,12.15
2022-09-16T07:06:18.687Z,12.2
2022-09-16T07:07:18.664Z,12.36
2022-09-16T07:08:18.404Z,12.47
2022-09-16T07:09:18.648Z,12.66
2022-09-16T07:10:18.127Z,12.71
2022-09-16T07:11:18.114Z,12.8
2022-09-16T07:12:23.907Z,12.86
2022-09-16T07:13:18.092Z,12.76
2022-09-16T07:14:18.359Z,12.74
2022-09-16T07:15:18.603Z,12.52
2022-09-16T07:16:18.981Z,12.52
2022-09-16T07:17:18.988Z,12.62
2022-09-16T07:18:18.071Z,12.44
2022-09-16T07:19:18.545Z,12.44
2022-09-16T07:20:18.026Z,12.34
2022-09-16T07:21:18.263Z,12.29
2022-09-16T07:22:18.016Z,12.23
2022-09-16T07:23:17.999Z,12.31
2022-09-16T07:24:18.230Z,12.23
2022-09-16T07:25:18.229Z,12.22
2022-09-16T07:26:17.958Z,12.15
2022-09-16T07:27:18.475Z,12.19
2022-09-16T07:28:17.942Z,12.2
2022-09-16T07:29:18.180Z,12.15
2022-09-16T07:30:18.433Z,12.19
2022-09-16T07:31:18.433Z,12.23
2022-09-16T07:32:18.174Z,12.29
2022-09-16T07:33:18.768Z,12.43
2022-09-16T07:34:18.399Z,12.48
2022-09-16T07:35:18.121Z,12.61
2022-09-16T07:36:18.364Z,12.73
2022-09-16T07:37:18.116Z,12.76
2022-09-16T07:38:17.839Z,12.71
2022-09-16T07:39:18.085Z,12.76
2022-09-16T07:40:18.400Z,12.86
2022-09-16T07:41:18.061Z,12.95
2022-09-16T07:42:18.056Z,12.94
2022-09-16T07:43:18.038Z,13.13
2022-09-16T07:44:18.290Z,13.28
2022-09-16T07:45:18.019Z,13.39
2022-09-16T07:46:18.318Z,13.4
2022-09-16T07:47:23.566Z,13.44
2022-09-16T07:48:18.243Z,13.47
2022-09-16T07:49:18.608Z,13.54
2022-09-16T07:50:17.974Z,13.5
2022-09-16T07:51:17.700Z,13.51
2022-09-16T07:52:17.693Z,13.69
2022-09-16T07:53:17.937Z,13.57
2022-09-16T07:54:17.679Z,13.72
2022-09-16T07:55:17.666Z,13.68
2022-09-16T07:56:17.909Z,13.65
2022-09-16T07:57:17.906Z,13.51
2022-09-16T07:58:17.897Z,13.58
2022-09-16T07:59:22.265Z,13.54
2022-09-16T08:00:17.877Z,13.68
2022-09-16T08:01:18.285Z,13.6
2022-09-16T08:02:18.089Z,13.53
2022-09-16T08:03:17.990Z,13.5
2022-09-16T08:04:17.830Z,13.5
2022-09-16T08:05:18.458Z,13.42
2022-09-16T08:06:17.579Z,13.44
2022-09-16T08:07:18.082Z,13.45
2022-09-16T08:08:18.043Z,13.45
2022-09-16T08:09:53.699Z,13.44
2022-09-16T08:10:18.076Z,13.5
2022-09-16T08:11:17.771Z,13.42
2022-09-16T08:12:18.017Z,13.53
2022-09-16T08:13:17.759Z,13.55
2022-09-16T08:14:17.743Z,13.5
2022-09-16T08:16:17.678Z,13.47
2022-09-16T08:17:17.986Z,13.69
2022-09-16T08:18:17.955Z,13.87
2022-09-16T08:19:17.951Z,14.12
2022-09-16T08:20:17.956Z,14.34
2022-09-16T08:21:18.306Z,14.46
2022-09-16T08:22:17.663Z,14.63
2022-09-16T08:23:17.662Z,14.79
2022-09-16T08:24:17.661Z,14.98
2022-09-16T08:25:17.387Z,15.05
2022-09-16T08:26:17.375Z,15.07
2022-09-16T08:27:17.624Z,15.05
